sensor_id;sensor_type;location;lat;lon;timestamp;temperature;humidity
3550;DHT22;45572;48.804;8.330;2023-07-09T00:01:44;22.60;78.50
3550;DHT22;45572;48.804;8.330;2023-07-09T00:04:12;22.60;78.60
3550;DHT22;45572;48.804;8.330;2023-07-09T00:06:40;22.50;78.70
3550;DHT22;45572;48.804;8.330;2023-07-09T00:09:13;22.50;78.90
3550;DHT22;45572;48.804;8.330;2023-07-09T00:11:41;22.40;79.10
3550;DHT22;45572;48.804;8.330;2023-07-09T00:14:10;22.30;79.40
3550;DHT22;45572;48.804;8.330;2023-07-09T00:16:40;22.30;78.70
3550;DHT22;45572;48.804;8.330;2023-07-09T00:19:12;22.20;79.60
3550;DHT22;45572;48.804;8.330;2023-07-09T00:21:44;22.10;79.30
3550;DHT22;45572;48.804;8.330;2023-07-09T00:24:12;22.10;80.00
3550;DHT22;45572;48.804;8.330;2023-07-09T00:26:41;22.00;80.10
3550;DHT22;45572;48.804;8.330;2023-07-09T00:29:09;22.00;80.20
3550;DHT22;45572;48.804;8.330;2023-07-09T00:31:39;21.90;80.20
3550;DHT22;45572;48.804;8.330;2023-07-09T00:34:14;21.90;80.30
3550;DHT22;45572;48.804;8.330;2023-07-09T00:36:45;21.90;80.30
3550;DHT22;45572;48.804;8.330;2023-07-09T00:39:16;21.90;80.40
3550;DHT22;45572;48.804;8.330;2023-07-09T00:41:44;21.80;81.00
3550;DHT22;45572;48.804;8.330;2023-07-09T00:44:23;21.70;80.90
3550;DHT22;45572;48.804;8.330;2023-07-09T00:50:02;21.70;81.10
3550;DHT22;45572;48.804;8.330;2023-07-09T00:52:35;21.70;80.70
3550;DHT22;45572;48.804;8.330;2023-07-09T00:55:07;21.80;80.90
3550;DHT22;45572;48.804;8.330;2023-07-09T00:57:37;21.70;80.90
3550;DHT22;45572;48.804;8.330;2023-07-09T01:00:11;21.80;80.80
3550;DHT22;45572;48.804;8.330;2023-07-09T01:02:45;21.70;80.80
3550;DHT22;45572;48.804;8.330;2023-07-09T01:05:17;21.80;80.90
3550;DHT22;45572;48.804;8.330;2023-07-09T01:07:46;21.70;80.90
3550;DHT22;45572;48.804;8.330;2023-07-09T01:10:15;21.70;80.90
3550;DHT22;45572;48.804;8.330;2023-07-09T01:12:44;21.80;80.90
3550;DHT22;45572;48.804;8.330;2023-07-09T01:15:12;21.80;81.10
3550;DHT22;45572;48.804;8.330;2023-07-09T01:17:41;21.70;81.10
3550;DHT22;45572;48.804;8.330;2023-07-09T01:20:18;21.70;81.10
3550;DHT22;45572;48.804;8.330;2023-07-09T01:22:50;21.70;80.90
3550;DHT22;45572;48.804;8.330;2023-07-09T01:25:26;21.70;81.00
3550;DHT22;45572;48.804;8.330;2023-07-09T01:27:55;21.70;80.80
3550;DHT22;45572;48.804;8.330;2023-07-09T01:30:28;21.70;80.80
3550;DHT22;45572;48.804;8.330;2023-07-09T01:32:58;21.80;80.70
3550;DHT22;45572;48.804;8.330;2023-07-09T01:35:29;21.70;80.90
3550;DHT22;45572;48.804;8.330;2023-07-09T01:37:59;21.60;81.10
3550;DHT22;45572;48.804;8.330;2023-07-09T01:40:28;21.70;81.20
3550;DHT22;45572;48.804;8.330;2023-07-09T01:42:59;21.60;81.20
3550;DHT22;45572;48.804;8.330;2023-07-09T01:45:27;21.60;81.30
3550;DHT22;45572;48.804;8.330;2023-07-09T01:47:55;21.60;80.70
3550;DHT22;45572;48.804;8.330;2023-07-09T01:50:23;21.50;80.90
3550;DHT22;45572;48.804;8.330;2023-07-09T01:52:53;21.50;81.20
3550;DHT22;45572;48.804;8.330;2023-07-09T01:55:23;21.50;80.80
3550;DHT22;45572;48.804;8.330;2023-07-09T01:57:50;21.60;80.90
3550;DHT22;45572;48.804;8.330;2023-07-09T02:00:19;21.50;80.90
3550;DHT22;45572;48.804;8.330;2023-07-09T02:02:47;21.50;81.30
3550;DHT22;45572;48.804;8.330;2023-07-09T02:05:18;21.50;81.40
3550;DHT22;45572;48.804;8.330;2023-07-09T02:07:47;21.50;81.70
3550;DHT22;45572;48.804;8.330;2023-07-09T02:10:16;21.30;82.00
3550;DHT22;45572;48.804;8.330;2023-07-09T02:12:46;21.30;82.20
3550;DHT22;45572;48.804;8.330;2023-07-09T02:15:14;21.20;82.30
3550;DHT22;45572;48.804;8.330;2023-07-09T02:17:43;21.20;82.10
3550;DHT22;45572;48.804;8.330;2023-07-09T02:20:12;21.30;82.10
3550;DHT22;45572;48.804;8.330;2023-07-09T02:22:41;21.20;81.00
3550;DHT22;45572;48.804;8.330;2023-07-09T02:25:09;21.30;81.70
3550;DHT22;45572;48.804;8.330;2023-07-09T02:27:37;21.30;82.20
3550;DHT22;45572;48.804;8.330;2023-07-09T02:30:07;21.20;82.40
3550;DHT22;45572;48.804;8.330;2023-07-09T02:32:35;21.00;82.40
3550;DHT22;45572;48.804;8.330;2023-07-09T02:35:04;21.00;82.60
3550;DHT22;45572;48.804;8.330;2023-07-09T02:37:32;21.00;82.80
3550;DHT22;45572;48.804;8.330;2023-07-09T02:40:00;21.00;82.80
3550;DHT22;45572;48.804;8.330;2023-07-09T02:42:28;20.90;82.40
3550;DHT22;45572;48.804;8.330;2023-07-09T02:44:57;20.90;82.80
3550;DHT22;45572;48.804;8.330;2023-07-09T02:47:29;21.00;82.90
3550;DHT22;45572;48.804;8.330;2023-07-09T02:49:59;20.90;83.00
3550;DHT22;45572;48.804;8.330;2023-07-09T02:52:27;20.80;83.10
3550;DHT22;45572;48.804;8.330;2023-07-09T02:54:55;20.80;83.30
3550;DHT22;45572;48.804;8.330;2023-07-09T02:57:22;20.80;83.20
3550;DHT22;45572;48.804;8.330;2023-07-09T02:59:50;20.80;83.20
3550;DHT22;45572;48.804;8.330;2023-07-09T03:02:18;20.70;83.30
3550;DHT22;45572;48.804;8.330;2023-07-09T03:04:47;20.70;83.50
3550;DHT22;45572;48.804;8.330;2023-07-09T03:07:15;20.70;83.60
3550;DHT22;45572;48.804;8.330;2023-07-09T03:09:43;20.80;83.50
3550;DHT22;45572;48.804;8.330;2023-07-09T03:12:11;20.70;83.50
3550;DHT22;45572;48.804;8.330;2023-07-09T03:14:38;20.70;83.60
3550;DHT22;45572;48.804;8.330;2023-07-09T03:17:07;20.60;83.60
3550;DHT22;45572;48.804;8.330;2023-07-09T03:19:34;20.60;83.60
3550;DHT22;45572;48.804;8.330;2023-07-09T03:22:05;20.60;83.40
3550;DHT22;45572;48.804;8.330;2023-07-09T03:24:32;20.60;83.30
3550;DHT22;45572;48.804;8.330;2023-07-09T03:27:00;20.70;83.00
3550;DHT22;45572;48.804;8.330;2023-07-09T03:29:28;20.70;83.10
3550;DHT22;45572;48.804;8.330;2023-07-09T03:31:56;20.70;82.80
3550;DHT22;45572;48.804;8.330;2023-07-09T03:34:24;20.70;82.50
3550;DHT22;45572;48.804;8.330;2023-07-09T03:36:52;20.80;82.20
3550;DHT22;45572;48.804;8.330;2023-07-09T03:39:21;20.80;82.50
3550;DHT22;45572;48.804;8.330;2023-07-09T03:41:48;20.80;82.50
3550;DHT22;45572;48.804;8.330;2023-07-09T03:44:16;20.80;82.70
3550;DHT22;45572;48.804;8.330;2023-07-09T03:46:44;20.80;82.80
3550;DHT22;45572;48.804;8.330;2023-07-09T03:49:12;20.60;83.20
3550;DHT22;45572;48.804;8.330;2023-07-09T03:51:40;20.50;83.40
3550;DHT22;45572;48.804;8.330;2023-07-09T03:54:08;20.50;83.60
3550;DHT22;45572;48.804;8.330;2023-07-09T03:56:37;20.50;83.70
3550;DHT22;45572;48.804;8.330;2023-07-09T03:59:04;20.40;83.60
3550;DHT22;45572;48.804;8.330;2023-07-09T04:01:33;20.40;83.60
3550;DHT22;45572;48.804;8.330;2023-07-09T04:04:01;20.40;83.60
3550;DHT22;45572;48.804;8.330;2023-07-09T04:06:29;20.40;83.80
3550;DHT22;45572;48.804;8.330;2023-07-09T04:08:57;20.40;84.00
3550;DHT22;45572;48.804;8.330;2023-07-09T04:11:24;20.30;84.10
3550;DHT22;45572;48.804;8.330;2023-07-09T04:13:53;20.20;84.40
3550;DHT22;45572;48.804;8.330;2023-07-09T04:16:21;20.20;84.50
3550;DHT22;45572;48.804;8.330;2023-07-09T04:18:49;20.30;84.40
3550;DHT22;45572;48.804;8.330;2023-07-09T04:21:17;20.40;84.30
3550;DHT22;45572;48.804;8.330;2023-07-09T04:23:45;20.40;83.90
3550;DHT22;45572;48.804;8.330;2023-07-09T04:26:16;20.40;84.10
3550;DHT22;45572;48.804;8.330;2023-07-09T04:28:43;20.40;84.10
3550;DHT22;45572;48.804;8.330;2023-07-09T04:31:12;20.50;84.10
3550;DHT22;45572;48.804;8.330;2023-07-09T04:33:40;20.50;84.10
3550;DHT22;45572;48.804;8.330;2023-07-09T04:36:09;20.60;84.10
3550;DHT22;45572;48.804;8.330;2023-07-09T04:38:39;20.50;84.10
3550;DHT22;45572;48.804;8.330;2023-07-09T04:41:07;20.50;84.10
3550;DHT22;45572;48.804;8.330;2023-07-09T04:43:35;20.50;84.10
3550;DHT22;45572;48.804;8.330;2023-07-09T04:46:02;20.60;84.20
3550;DHT22;45572;48.804;8.330;2023-07-09T04:48:32;20.60;83.80
3550;DHT22;45572;48.804;8.330;2023-07-09T04:51:00;20.80;83.40
3550;DHT22;45572;48.804;8.330;2023-07-09T04:53:27;20.80;83.80
3550;DHT22;45572;48.804;8.330;2023-07-09T04:55:55;20.90;83.20
3550;DHT22;45572;48.804;8.330;2023-07-09T04:58:23;20.90;83.80
3550;DHT22;45572;48.804;8.330;2023-07-09T05:00:51;21.00;83.90
3550;DHT22;45572;48.804;8.330;2023-07-09T05:03:19;21.10;83.60
3550;DHT22;45572;48.804;8.330;2023-07-09T05:05:48;21.10;83.20
3550;DHT22;45572;48.804;8.330;2023-07-09T05:08:21;21.20;83.40
3550;DHT22;45572;48.804;8.330;2023-07-09T05:10:51;21.40;83.00
3550;DHT22;45572;48.804;8.330;2023-07-09T05:13:19;21.50;81.80
3550;DHT22;45572;48.804;8.330;2023-07-09T05:15:48;21.60;81.40
3550;DHT22;45572;48.804;8.330;2023-07-09T05:18:17;21.80;81.70
3550;DHT22;45572;48.804;8.330;2023-07-09T05:20:47;22.00;78.20
3550;DHT22;45572;48.804;8.330;2023-07-09T05:23:15;22.10;78.80
3550;DHT22;45572;48.804;8.330;2023-07-09T05:25:43;22.40;78.20
3550;DHT22;45572;48.804;8.330;2023-07-09T05:28:12;22.60;78.00
3550;DHT22;45572;48.804;8.330;2023-07-09T05:30:41;22.80;77.30
3550;DHT22;45572;48.804;8.330;2023-07-09T05:33:09;23.00;76.30
3550;DHT22;45572;48.804;8.330;2023-07-09T05:35:37;23.10;76.30
3550;DHT22;45572;48.804;8.330;2023-07-09T05:38:06;23.40;76.80
3550;DHT22;45572;48.804;8.330;2023-07-09T05:40:33;23.50;75.90
3550;DHT22;45572;48.804;8.330;2023-07-09T05:43:01;23.80;76.10
3550;DHT22;45572;48.804;8.330;2023-07-09T05:45:29;24.00;74.90
3550;DHT22;45572;48.804;8.330;2023-07-09T05:47:58;24.30;76.20
3550;DHT22;45572;48.804;8.330;2023-07-09T05:50:28;24.50;75.30
3550;DHT22;45572;48.804;8.330;2023-07-09T05:52:55;24.80;74.90
3550;DHT22;45572;48.804;8.330;2023-07-09T05:55:25;25.00;73.50
3550;DHT22;45572;48.804;8.330;2023-07-09T05:57:53;25.10;72.30
3550;DHT22;45572;48.804;8.330;2023-07-09T06:00:21;25.30;71.30
3550;DHT22;45572;48.804;8.330;2023-07-09T06:02:49;25.60;70.00
3550;DHT22;45572;48.804;8.330;2023-07-09T06:05:17;25.70;69.60
3550;DHT22;45572;48.804;8.330;2023-07-09T06:07:44;26.00;70.70
3550;DHT22;45572;48.804;8.330;2023-07-09T06:10:12;26.70;69.20
3550;DHT22;45572;48.804;8.330;2023-07-09T06:12:41;27.40;66.60
3550;DHT22;45572;48.804;8.330;2023-07-09T06:15:10;28.40;62.80
3550;DHT22;45572;48.804;8.330;2023-07-09T06:17:38;29.30;60.20
3550;DHT22;45572;48.804;8.330;2023-07-09T06:20:06;30.20;59.10
3550;DHT22;45572;48.804;8.330;2023-07-09T06:22:34;30.90;57.00
3550;DHT22;45572;48.804;8.330;2023-07-09T06:25:02;31.00;57.30
3550;DHT22;45572;48.804;8.330;2023-07-09T06:27:31;31.50;56.70
3550;DHT22;45572;48.804;8.330;2023-07-09T06:30:00;32.50;54.00
3550;DHT22;45572;48.804;8.330;2023-07-09T06:32:28;33.20;52.10
3550;DHT22;45572;48.804;8.330;2023-07-09T06:34:57;33.60;50.40
3550;DHT22;45572;48.804;8.330;2023-07-09T06:37:25;33.60;50.40
3550;DHT22;45572;48.804;8.330;2023-07-09T06:39:52;32.70;51.90
3550;DHT22;45572;48.804;8.330;2023-07-09T06:42:20;33.10;51.50
3550;DHT22;45572;48.804;8.330;2023-07-09T06:45:01;33.50;51.50
3550;DHT22;45572;48.804;8.330;2023-07-09T06:47:31;33.40;50.50
3550;DHT22;45572;48.804;8.330;2023-07-09T06:49:59;33.80;49.90
3550;DHT22;45572;48.804;8.330;2023-07-09T06:52:27;34.00;49.20
3550;DHT22;45572;48.804;8.330;2023-07-09T06:54:59;34.50;49.10
3550;DHT22;45572;48.804;8.330;2023-07-09T06:57:29;35.80;47.40
3550;DHT22;45572;48.804;8.330;2023-07-09T06:59:56;36.40;46.70
3550;DHT22;45572;48.804;8.330;2023-07-09T07:02:25;36.90;45.80
3550;DHT22;45572;48.804;8.330;2023-07-09T07:04:53;37.10;45.40
3550;DHT22;45572;48.804;8.330;2023-07-09T07:07:22;37.00;44.90
3550;DHT22;45572;48.804;8.330;2023-07-09T07:09:49;37.30;45.10
3550;DHT22;45572;48.804;8.330;2023-07-09T07:12:24;38.50;45.50
3550;DHT22;45572;48.804;8.330;2023-07-09T07:14:56;39.60;44.30
3550;DHT22;45572;48.804;8.330;2023-07-09T07:17:25;40.50;43.00
3550;DHT22;45572;48.804;8.330;2023-07-09T07:19:53;41.30;43.30
3550;DHT22;45572;48.804;8.330;2023-07-09T07:22:20;41.80;42.00
3550;DHT22;45572;48.804;8.330;2023-07-09T07:24:48;42.40;40.20
3550;DHT22;45572;48.804;8.330;2023-07-09T07:27:16;42.80;40.30
3550;DHT22;45572;48.804;8.330;2023-07-09T07:29:44;43.20;38.40
3550;DHT22;45572;48.804;8.330;2023-07-09T07:32:12;43.40;38.10
3550;DHT22;45572;48.804;8.330;2023-07-09T07:34:41;43.80;39.40
3550;DHT22;45572;48.804;8.330;2023-07-09T07:37:09;44.20;38.60
3550;DHT22;45572;48.804;8.330;2023-07-09T07:39:37;44.60;38.30
3550;DHT22;45572;48.804;8.330;2023-07-09T07:42:05;44.70;37.20
3550;DHT22;45572;48.804;8.330;2023-07-09T07:44:33;45.00;37.40
3550;DHT22;45572;48.804;8.330;2023-07-09T07:47:02;45.30;38.60
3550;DHT22;45572;48.804;8.330;2023-07-09T07:49:30;45.50;36.70
3550;DHT22;45572;48.804;8.330;2023-07-09T07:51:59;46.00;36.70
3550;DHT22;45572;48.804;8.330;2023-07-09T07:54:31;46.10;35.60
3550;DHT22;45572;48.804;8.330;2023-07-09T07:56:59;46.30;36.40
3550;DHT22;45572;48.804;8.330;2023-07-09T07:59:27;46.40;36.40
3550;DHT22;45572;48.804;8.330;2023-07-09T08:01:55;46.80;36.30
3550;DHT22;45572;48.804;8.330;2023-07-09T08:04:23;46.70;35.60
3550;DHT22;45572;48.804;8.330;2023-07-09T08:06:51;46.70;35.50
3550;DHT22;45572;48.804;8.330;2023-07-09T08:09:22;46.70;34.60
3550;DHT22;45572;48.804;8.330;2023-07-09T08:11:50;46.70;36.20
3550;DHT22;45572;48.804;8.330;2023-07-09T08:14:18;46.90;35.90
3550;DHT22;45572;48.804;8.330;2023-07-09T08:16:46;47.00;35.60
3550;DHT22;45572;48.804;8.330;2023-07-09T08:19:18;46.90;35.90
3550;DHT22;45572;48.804;8.330;2023-07-09T08:21:46;47.20;35.90
3550;DHT22;45572;48.804;8.330;2023-07-09T08:24:14;47.40;35.40
3550;DHT22;45572;48.804;8.330;2023-07-09T08:26:43;47.30;36.10
3550;DHT22;45572;48.804;8.330;2023-07-09T08:29:11;47.70;35.50
3550;DHT22;45572;48.804;8.330;2023-07-09T08:31:38;48.00;35.60
3550;DHT22;45572;48.804;8.330;2023-07-09T08:34:08;48.40;35.20
3550;DHT22;45572;48.804;8.330;2023-07-09T08:36:36;48.70;35.40
3550;DHT22;45572;48.804;8.330;2023-07-09T08:39:04;48.80;35.20
3550;DHT22;45572;48.804;8.330;2023-07-09T08:41:39;48.60;35.10
3550;DHT22;45572;48.804;8.330;2023-07-09T08:44:23;48.50;36.10
3550;DHT22;45572;48.804;8.330;2023-07-09T08:47:00;48.80;35.90
3550;DHT22;45572;48.804;8.330;2023-07-09T08:49:38;47.90;36.40
3550;DHT22;45572;48.804;8.330;2023-07-09T08:52:14;48.30;36.30
3550;DHT22;45572;48.804;8.330;2023-07-09T08:54:44;48.70;35.90
3550;DHT22;45572;48.804;8.330;2023-07-09T08:57:19;48.90;35.50
3550;DHT22;45572;48.804;8.330;2023-07-09T08:59:50;48.70;35.50
3550;DHT22;45572;48.804;8.330;2023-07-09T09:02:28;48.80;35.50
3550;DHT22;45572;48.804;8.330;2023-07-09T09:04:57;49.00;34.60
3550;DHT22;45572;48.804;8.330;2023-07-09T09:07:35;48.80;35.30
3550;DHT22;45572;48.804;8.330;2023-07-09T09:10:11;49.30;35.90
3550;DHT22;45572;48.804;8.330;2023-07-09T09:12:51;49.10;36.10
3550;DHT22;45572;48.804;8.330;2023-07-09T09:15:23;49.30;34.90
3550;DHT22;45572;48.804;8.330;2023-07-09T09:17:53;49.60;35.10
3550;DHT22;45572;48.804;8.330;2023-07-09T09:20:22;49.50;35.30
3550;DHT22;45572;48.804;8.330;2023-07-09T09:23:01;49.90;34.90
3550;DHT22;45572;48.804;8.330;2023-07-09T09:25:40;49.90;34.60
3550;DHT22;45572;48.804;8.330;2023-07-09T09:28:09;49.90;34.00
3550;DHT22;45572;48.804;8.330;2023-07-09T09:30:38;50.20;34.90
3550;DHT22;45572;48.804;8.330;2023-07-09T09:33:08;50.50;33.70
3550;DHT22;45572;48.804;8.330;2023-07-09T09:35:41;50.50;32.70
3550;DHT22;45572;48.804;8.330;2023-07-09T09:38:11;49.70;34.40
3550;DHT22;45572;48.804;8.330;2023-07-09T09:40:40;50.00;34.00
3550;DHT22;45572;48.804;8.330;2023-07-09T09:43:13;50.30;34.50
3550;DHT22;45572;48.804;8.330;2023-07-09T09:45:44;50.40;34.50
3550;DHT22;45572;48.804;8.330;2023-07-09T09:48:15;50.60;33.80
3550;DHT22;45572;48.804;8.330;2023-07-09T09:50:45;51.10;34.00
3550;DHT22;45572;48.804;8.330;2023-07-09T09:53:24;51.30;33.00
3550;DHT22;45572;48.804;8.330;2023-07-09T09:55:53;51.60;32.30
3550;DHT22;45572;48.804;8.330;2023-07-09T09:58:26;51.70;33.00
3550;DHT22;45572;48.804;8.330;2023-07-09T10:00:58;52.00;33.00
3550;DHT22;45572;48.804;8.330;2023-07-09T10:03:35;51.70;32.90
3550;DHT22;45572;48.804;8.330;2023-07-09T10:06:07;51.80;32.10
3550;DHT22;45572;48.804;8.330;2023-07-09T10:08:43;52.00;32.50
3550;DHT22;45572;48.804;8.330;2023-07-09T10:11:19;51.50;32.10
3550;DHT22;45572;48.804;8.330;2023-07-09T10:13:50;51.50;33.00
3550;DHT22;45572;48.804;8.330;2023-07-09T10:16:25;51.80;33.20
3550;DHT22;45572;48.804;8.330;2023-07-09T10:19:02;51.50;30.70
3550;DHT22;45572;48.804;8.330;2023-07-09T10:21:39;51.40;32.60
3550;DHT22;45572;48.804;8.330;2023-07-09T10:24:20;51.70;32.90
3550;DHT22;45572;48.804;8.330;2023-07-09T10:27:00;51.90;32.20
3550;DHT22;45572;48.804;8.330;2023-07-09T10:29:43;52.10;32.10
3550;DHT22;45572;48.804;8.330;2023-07-09T10:32:30;52.00;32.50
3550;DHT22;45572;48.804;8.330;2023-07-09T10:35:03;52.30;33.00
3550;DHT22;45572;48.804;8.330;2023-07-09T10:37:46;52.50;31.90
3550;DHT22;45572;48.804;8.330;2023-07-09T10:40:30;52.50;32.30
3550;DHT22;45572;48.804;8.330;2023-07-09T10:43:00;52.80;31.50
3550;DHT22;45572;48.804;8.330;2023-07-09T10:45:31;52.80;31.50
3550;DHT22;45572;48.804;8.330;2023-07-09T10:48:07;53.10;31.20
3550;DHT22;45572;48.804;8.330;2023-07-09T10:50:40;51.90;30.60
3550;DHT22;45572;48.804;8.330;2023-07-09T10:53:14;52.10;32.80
3550;DHT22;45572;48.804;8.330;2023-07-09T10:55:50;52.10;31.00
3550;DHT22;45572;48.804;8.330;2023-07-09T10:58:28;52.00;31.20
3550;DHT22;45572;48.804;8.330;2023-07-09T11:00:57;52.00;31.30
3550;DHT22;45572;48.804;8.330;2023-07-09T11:03:37;51.60;31.30
3550;DHT22;45572;48.804;8.330;2023-07-09T11:06:13;51.70;30.10
3550;DHT22;45572;48.804;8.330;2023-07-09T11:08:42;48.10;32.40
3550;DHT22;45572;48.804;8.330;2023-07-09T11:11:17;47.30;32.90
3550;DHT22;45572;48.804;8.330;2023-07-09T11:13:52;47.20;34.70
3550;DHT22;45572;48.804;8.330;2023-07-09T11:16:25;48.20;33.50
3550;DHT22;45572;48.804;8.330;2023-07-09T11:18:59;48.70;32.40
3550;DHT22;45572;48.804;8.330;2023-07-09T11:21:27;49.10;31.50
3550;DHT22;45572;48.804;8.330;2023-07-09T11:23:58;49.30;34.30
3550;DHT22;45572;48.804;8.330;2023-07-09T11:26:27;49.00;33.40
3550;DHT22;45572;48.804;8.330;2023-07-09T11:29:13;49.50;32.60
3550;DHT22;45572;48.804;8.330;2023-07-09T11:31:45;49.90;32.70
3550;DHT22;45572;48.804;8.330;2023-07-09T11:34:18;50.40;32.30
3550;DHT22;45572;48.804;8.330;2023-07-09T11:36:49;50.60;32.40
3550;DHT22;45572;48.804;8.330;2023-07-09T11:39:20;49.90;30.20
3550;DHT22;45572;48.804;8.330;2023-07-09T11:41:48;50.00;32.10
3550;DHT22;45572;48.804;8.330;2023-07-09T11:44:18;49.90;32.30
3550;DHT22;45572;48.804;8.330;2023-07-09T11:46:54;50.20;31.30
3550;DHT22;45572;48.804;8.330;2023-07-09T11:49:31;50.80;32.10
3550;DHT22;45572;48.804;8.330;2023-07-09T11:52:05;51.00;32.80
3550;DHT22;45572;48.804;8.330;2023-07-09T11:54:34;50.90;31.30
3550;DHT22;45572;48.804;8.330;2023-07-09T11:57:04;51.40;30.40
3550;DHT22;45572;48.804;8.330;2023-07-09T11:59:38;51.10;28.70
3550;DHT22;45572;48.804;8.330;2023-07-09T12:02:08;50.20;31.20
3550;DHT22;45572;48.804;8.330;2023-07-09T12:04:43;49.70;29.90
3550;DHT22;45572;48.804;8.330;2023-07-09T12:07:13;48.80;29.80
3550;DHT22;45572;48.804;8.330;2023-07-09T12:09:49;46.80;31.00
3550;DHT22;45572;48.804;8.330;2023-07-09T12:12:20;45.70;32.80
3550;DHT22;45572;48.804;8.330;2023-07-09T12:14:48;46.30;34.20
3550;DHT22;45572;48.804;8.330;2023-07-09T12:17:16;47.00;33.00
3550;DHT22;45572;48.804;8.330;2023-07-09T12:19:45;47.90;32.70
3550;DHT22;45572;48.804;8.330;2023-07-09T12:22:17;48.70;31.70
3550;DHT22;45572;48.804;8.330;2023-07-09T12:24:50;49.10;32.10
3550;DHT22;45572;48.804;8.330;2023-07-09T12:27:22;49.00;31.40
3550;DHT22;45572;48.804;8.330;2023-07-09T12:29:52;49.10;32.80
3550;DHT22;45572;48.804;8.330;2023-07-09T12:32:21;49.10;30.50
3550;DHT22;45572;48.804;8.330;2023-07-09T12:34:55;48.50;32.20
3550;DHT22;45572;48.804;8.330;2023-07-09T12:37:25;48.20;32.40
3550;DHT22;45572;48.804;8.330;2023-07-09T12:39:55;48.60;30.80
3550;DHT22;45572;48.804;8.330;2023-07-09T12:42:27;48.70;29.40
3550;DHT22;45572;48.804;8.330;2023-07-09T12:44:57;48.20;29.60
3550;DHT22;45572;48.804;8.330;2023-07-09T12:47:25;47.50;30.40
3550;DHT22;45572;48.804;8.330;2023-07-09T12:50:19;47.20;32.30
3550;DHT22;45572;48.804;8.330;2023-07-09T12:52:48;46.80;32.10
3550;DHT22;45572;48.804;8.330;2023-07-09T12:55:21;46.50;31.00
3550;DHT22;45572;48.804;8.330;2023-07-09T12:57:49;46.30;32.30
3550;DHT22;45572;48.804;8.330;2023-07-09T13:00:18;45.50;34.40
3550;DHT22;45572;48.804;8.330;2023-07-09T13:02:53;44.70;34.60
3550;DHT22;45572;48.804;8.330;2023-07-09T13:05:24;44.00;34.70
3550;DHT22;45572;48.804;8.330;2023-07-09T13:07:57;43.10;35.60
3550;DHT22;45572;48.804;8.330;2023-07-09T13:10:29;41.80;34.70
3550;DHT22;45572;48.804;8.330;2023-07-09T13:13:01;41.50;36.10
3550;DHT22;45572;48.804;8.330;2023-07-09T13:15:38;41.40;36.00
3550;DHT22;45572;48.804;8.330;2023-07-09T13:18:08;41.30;37.90
3550;DHT22;45572;48.804;8.330;2023-07-09T13:20:39;41.30;37.80
3550;DHT22;45572;48.804;8.330;2023-07-09T13:23:10;40.90;36.70
3550;DHT22;45572;48.804;8.330;2023-07-09T13:25:38;41.00;36.50
3550;DHT22;45572;48.804;8.330;2023-07-09T13:28:18;40.80;36.50
3550;DHT22;45572;48.804;8.330;2023-07-09T13:30:47;40.70;37.50
3550;DHT22;45572;48.804;8.330;2023-07-09T13:33:16;40.60;37.60
3550;DHT22;45572;48.804;8.330;2023-07-09T13:35:47;40.80;37.40
3550;DHT22;45572;48.804;8.330;2023-07-09T13:38:16;40.80;38.90
3550;DHT22;45572;48.804;8.330;2023-07-09T13:40:47;40.90;38.90
3550;DHT22;45572;48.804;8.330;2023-07-09T13:43:18;40.90;37.00
3550;DHT22;45572;48.804;8.330;2023-07-09T13:45:46;40.50;38.00
3550;DHT22;45572;48.804;8.330;2023-07-09T13:48:18;40.50;39.50
3550;DHT22;45572;48.804;8.330;2023-07-09T13:50:50;40.50;40.60
3550;DHT22;45572;48.804;8.330;2023-07-09T13:53:22;40.70;38.70
3550;DHT22;45572;48.804;8.330;2023-07-09T13:55:50;40.60;39.20
3550;DHT22;45572;48.804;8.330;2023-07-09T13:58:21;40.70;38.40
3550;DHT22;45572;48.804;8.330;2023-07-09T14:00:54;40.60;39.30
3550;DHT22;45572;48.804;8.330;2023-07-09T14:03:25;40.60;39.00
3550;DHT22;45572;48.804;8.330;2023-07-09T14:05:55;40.50;41.00
3550;DHT22;45572;48.804;8.330;2023-07-09T14:08:23;40.70;39.90
3550;DHT22;45572;48.804;8.330;2023-07-09T14:10:51;40.70;40.30
3550;DHT22;45572;48.804;8.330;2023-07-09T14:13:21;40.70;40.70
3550;DHT22;45572;48.804;8.330;2023-07-09T14:15:50;40.40;39.70
3550;DHT22;45572;48.804;8.330;2023-07-09T14:18:21;40.20;40.20
3550;DHT22;45572;48.804;8.330;2023-07-09T14:20:50;39.90;41.10
3550;DHT22;45572;48.804;8.330;2023-07-09T14:23:20;39.80;41.10
3550;DHT22;45572;48.804;8.330;2023-07-09T14:25:48;39.60;41.00
3550;DHT22;45572;48.804;8.330;2023-07-09T14:28:18;39.40;41.90
3550;DHT22;45572;48.804;8.330;2023-07-09T14:30:46;39.30;41.60
3550;DHT22;45572;48.804;8.330;2023-07-09T14:33:18;39.10;41.60
3550;DHT22;45572;48.804;8.330;2023-07-09T14:35:47;39.10;41.80
3550;DHT22;45572;48.804;8.330;2023-07-09T14:38:21;38.80;42.60
3550;DHT22;45572;48.804;8.330;2023-07-09T14:40:50;38.70;43.10
3550;DHT22;45572;48.804;8.330;2023-07-09T14:43:18;38.60;42.70
3550;DHT22;45572;48.804;8.330;2023-07-09T14:45:47;38.50;43.00
3550;DHT22;45572;48.804;8.330;2023-07-09T14:48:18;38.20;42.20
3550;DHT22;45572;48.804;8.330;2023-07-09T14:50:47;38.10;42.80
3550;DHT22;45572;48.804;8.330;2023-07-09T14:53:21;38.00;44.10
3550;DHT22;45572;48.804;8.330;2023-07-09T14:55:52;37.80;43.50
3550;DHT22;45572;48.804;8.330;2023-07-09T14:58:22;37.70;43.40
3550;DHT22;45572;48.804;8.330;2023-07-09T15:00:51;37.60;44.30
3550;DHT22;45572;48.804;8.330;2023-07-09T15:03:21;37.50;45.00
3550;DHT22;45572;48.804;8.330;2023-07-09T15:05:49;37.60;43.70
3550;DHT22;45572;48.804;8.330;2023-07-09T15:08:20;37.80;44.60
3550;DHT22;45572;48.804;8.330;2023-07-09T15:10:49;37.70;45.20
3550;DHT22;45572;48.804;8.330;2023-07-09T15:13:29;37.70;44.50
3550;DHT22;45572;48.804;8.330;2023-07-09T15:15:58;37.70;44.20
3550;DHT22;45572;48.804;8.330;2023-07-09T15:18:26;37.70;45.60
3550;DHT22;45572;48.804;8.330;2023-07-09T15:20:56;37.50;44.90
3550;DHT22;45572;48.804;8.330;2023-07-09T15:23:25;37.40;44.90
3550;DHT22;45572;48.804;8.330;2023-07-09T15:25:54;37.20;44.30
3550;DHT22;45572;48.804;8.330;2023-07-09T15:28:23;37.00;45.80
3550;DHT22;45572;48.804;8.330;2023-07-09T15:30:51;36.80;44.80
3550;DHT22;45572;48.804;8.330;2023-07-09T15:33:20;36.50;46.40
3550;DHT22;45572;48.804;8.330;2023-07-09T15:35:49;36.40;47.30
3550;DHT22;45572;48.804;8.330;2023-07-09T15:38:26;36.30;46.80
3550;DHT22;45572;48.804;8.330;2023-07-09T15:40:55;36.00;47.70
3550;DHT22;45572;48.804;8.330;2023-07-09T15:43:25;35.90;46.70
3550;DHT22;45572;48.804;8.330;2023-07-09T15:45:55;35.80;47.80
3550;DHT22;45572;48.804;8.330;2023-07-09T15:48:27;35.80;50.60
3550;DHT22;45572;48.804;8.330;2023-07-09T15:50:55;35.50;53.40
3550;DHT22;45572;48.804;8.330;2023-07-09T15:53:25;35.20;55.90
3550;DHT22;45572;48.804;8.330;2023-07-09T15:55:57;34.80;57.30
3550;DHT22;45572;48.804;8.330;2023-07-09T15:58:29;34.50;60.10
3550;DHT22;45572;48.804;8.330;2023-07-09T16:01:00;34.10;60.90
3550;DHT22;45572;48.804;8.330;2023-07-09T16:03:28;33.80;61.10
3550;DHT22;45572;48.804;8.330;2023-07-09T16:05:56;33.60;61.30
3550;DHT22;45572;48.804;8.330;2023-07-09T16:08:24;33.60;62.50